Terminal Aerodrome Forecast
Issued by NWS Sioux Falls, SD

Home | Current Version | Previous Version | Graphics & Text | Print | Product List | Glossary On
Versions: 1 2 3 4 5 6 7 8 9 10 11 12 13 14 15
180
FTUS43 KFSD 250540
TAFHON
TAF
KHON 250540Z 2506/2606 15013G19KT P6SM SCT130 WS015/17040KT
     FM250900 16012G18KT P6SM SKC WS015/20040KT
     FM251100 16012KT P6SM SKC
     FM251500 17008KT P6SM SKC
     FM252100 VRB04KT P6SM SCT150
     FM252300 03010KT P6SM VCTS BKN090CB
     FM260100 04008KT 4SM TSRA BR OVC035CB
     FM260400 05012KT P6SM -SHRA SCT025 OVC060
      TEMPO 2604/2606 4SM TSRA BR OVC025CB=

USA.gov is the U.S. government's official web portal to all federal, state and local government web resources and services.